Time;durP1;ratioP1;P1;durP2;ratioP2;P2;SDS_P1;SDS_P2;PMS_P1;PMS_P2;Temp;Humidity;BMP_temperature;BMP_pressure;BME280_temperature;BME280_humidity;BME280_pressure;Samples;Min_cycle;Max_cycle;Signal;HPM_P1;HPM_P2
2022/08/19 00:00:15;;;;;;;8.95;6.10;;;22.10;91.40;;;;;;4983057;28;20801;-66
2022/08/19 00:02:41;;;;;;;15.35;9.68;;;22.00;91.40;;;;;;5013789;28;20099;-65
2022/08/19 00:05:07;;;;;;;13.23;7.35;;;22.00;91.40;;;;;;5000466;28;20133;-63
2022/08/19 00:07:32;;;;;;;12.85;7.28;;;22.00;91.50;;;;;;4999328;28;20605;-62
2022/08/19 00:09:58;;;;;;;9.68;6.30;;;22.00;91.50;;;;;;5001347;28;20033;-61
2022/08/19 00:12:23;;;;;;;11.15;6.25;;;21.90;91.50;;;;;;4997570;28;20038;-63
2022/08/19 00:14:49;;;;;;;10.40;6.00;;;22.00;91.60;;;;;;4982574;28;20049;-64
2022/08/19 00:17:14;;;;;;;15.55;9.98;;;22.00;91.60;;;;;;4997657;28;20026;-65
2022/08/19 00:19:40;;;;;;;14.10;10.07;;;22.00;91.60;;;;;;4999708;28;20084;-64
2022/08/19 00:22:06;;;;;;;10.30;6.38;;;22.00;91.60;;;;;;4998377;28;20124;-63
2022/08/19 00:24:31;;;;;;;6.93;5.72;;;22.00;91.60;;;;;;4999489;28;20030;-63
2022/08/19 00:26:57;;;;;;;12.40;5.95;;;22.00;91.50;;;;;;4999478;28;20556;-66
2022/08/19 00:29:23;;;;;;;10.88;6.55;;;22.00;91.60;;;;;;4999436;28;20127;-63
2022/08/19 00:31:49;;;;;;;9.40;6.07;;;22.00;91.60;;;;;;4981264;28;20553;-62
2022/08/19 00:34:15;;;;;;;12.75;9.10;;;22.00;91.70;;;;;;4983425;28;20030;-65
2022/08/19 00:36:41;;;;;;;15.60;12.65;;;22.00;91.70;;;;;;4999879;28;20030;-63
2022/08/19 00:39:07;;;;;;;17.60;8.02;;;21.90;91.80;;;;;;4998708;28;20362;-62
2022/08/19 00:41:32;;;;;;;10.10;7.45;;;21.90;91.90;;;;;;4980562;28;20045;-61
2022/08/19 00:44:01;;;;;;;11.27;6.82;;;21.90;91.90;;;;;;5000311;28;20548;-64
2022/08/19 00:46:27;;;;;;;7.78;6.97;;;21.90;91.90;;;;;;5015283;28;20547;-61
2022/08/19 00:48:52;;;;;;;9.88;6.22;;;21.90;91.80;;;;;;4982869;28;20037;-62
2022/08/19 00:51:18;;;;;;;7.88;6.38;;;21.90;91.90;;;;;;4981889;28;20042;-64
2022/08/19 00:53:43;;;;;;;10.10;6.65;;;21.90;91.90;;;;;;4999533;28;20076;-65
2022/08/19 00:56:09;;;;;;;9.90;5.88;;;21.90;91.90;;;;;;4999504;28;20092;-61
2022/08/19 00:58:35;;;;;;;8.48;6.05;;;21.90;91.90;;;;;;5000044;28;20073;-61
2022/08/19 01:01:01;;;;;;;7.88;6.13;;;21.90;92.00;;;;;;4999206;28;20075;-62
2022/08/19 01:03:27;;;;;;;8.77;5.35;;;21.90;92.00;;;;;;4999639;28;20038;-65
2022/08/19 01:05:52;;;;;;;7.07;5.47;;;21.90;92.10;;;;;;4997772;28;20049;-63
2022/08/19 01:08:18;;;;;;;9.50;5.55;;;21.90;92.10;;;;;;4981875;28;20424;-63
2022/08/19 01:10:47;;;;;;;7.13;5.75;;;21.90;92.20;;;;;;5014271;28;20021;-63
2022/08/19 01:13:18;;;;;;;6.88;5.20;;;21.80;92.40;;;;;;4997919;28;20049;-65
2022/08/19 01:15:51;;;;;;;9.48;5.82;;;21.90;92.40;;;;;;4983236;28;20018;-64
2022/08/19 01:18:17;;;;;;;12.40;6.10;;;21.80;92.50;;;;;;5000723;28;20485;-65
2022/08/19 01:20:43;;;;;;;8.50;5.35;;;21.80;92.60;;;;;;4983655;28;21015;-62
2022/08/19 01:23:08;;;;;;;9.00;5.55;;;21.80;92.60;;;;;;4980093;28;20025;-61
2022/08/19 01:25:49;;;;;;;8.48;5.13;;;21.80;92.60;;;;;;4996528;28;20030;-64
2022/08/19 01:28:26;;;;;;;6.13;4.68;;;21.80;92.60;;;;;;4997556;28;20046;-64
2022/08/19 01:30:51;;;;;;;5.65;5.05;;;21.80;92.50;;;;;;5010258;28;20034;-62
2022/08/19 01:33:17;;;;;;;6.93;5.20;;;21.80;92.60;;;;;;4995575;28;20053;-62
2022/08/19 01:35:42;;;;;;;5.22;4.72;;;21.80;92.60;;;;;;4979683;28;20033;-62
2022/08/19 01:38:10;;;;;;;6.07;5.03;;;21.80;92.70;;;;;;5012075;28;20145;-63
2022/08/19 01:40:38;;;;;;;6.13;5.43;;;21.80;92.70;;;;;;4980446;28;20034;-62
2022/08/19 01:43:03;;;;;;;6.43;4.78;;;21.80;92.80;;;;;;5012055;28;20137;-62
2022/08/19 01:45:30;;;;;;;10.32;4.93;;;21.80;92.80;;;;;;4979196;28;20063;-61
2022/08/19 01:47:56;;;;;;;4.72;4.30;;;21.80;92.80;;;;;;4977605;28;20026;-64
2022/08/19 01:50:22;;;;;;;5.35;4.85;;;21.80;92.80;;;;;;4991670;28;20034;-62
2022/08/19 01:52:47;;;;;;;6.85;4.43;;;21.80;92.80;;;;;;4991600;28;21866;-64
2022/08/19 01:55:19;;;;;;;6.50;4.57;;;21.80;92.70;;;;;;5011727;28;20030;-61
2022/08/19 01:57:48;;;;;;;5.30;4.57;;;21.80;92.70;;;;;;4979920;28;20168;-62
2022/08/19 02:00:15;;;;;;;10.80;4.35;;;21.80;92.70;;;;;;4980241;28;20125;-65
2022/08/19 02:02:41;;;;;;;7.18;4.60;;;21.90;92.80;;;;;;5012816;28;20064;-62
2022/08/19 02:05:07;;;;;;;5.10;4.60;;;21.80;92.80;;;;;;4979508;28;20030;-61
2022/08/19 02:07:33;;;;;;;7.65;4.63;;;21.80;92.90;;;;;;4996665;28;20022;-61
2022/08/19 02:10:04;;;;;;;6.68;4.28;;;21.80;92.80;;;;;;4997103;28;20096;-64
2022/08/19 02:12:30;;;;;;;7.20;4.50;;;21.70;92.90;;;;;;4991719;28;20057;-61
2022/08/19 02:14:55;;;;;;;5.28;4.78;;;21.80;92.90;;;;;;4995501;28;20045;-63
2022/08/19 02:17:21;;;;;;;6.95;4.75;;;21.70;92.90;;;;;;4996483;28;20184;-62
2022/08/19 02:19:48;;;;;;;4.80;4.40;;;21.70;92.90;;;;;;4996891;28;20380;-64
2022/08/19 02:22:14;;;;;;;4.57;4.15;;;21.70;92.90;;;;;;4995755;28;20548;-61
2022/08/19 02:24:40;;;;;;;7.60;5.72;;;21.70;92.90;;;;;;4995564;28;20042;-63
2022/08/19 02:27:05;;;;;;;8.95;7.70;;;21.70;92.90;;;;;;4993800;28;20052;-62
2022/08/19 02:29:31;;;;;;;8.98;8.10;;;21.70;93.00;;;;;;4994751;28;20092;-65
2022/08/19 02:31:56;;;;;;;7.07;6.20;;;21.70;93.00;;;;;;4976921;28;20036;-62
2022/08/19 02:34:22;;;;;;;7.82;5.97;;;21.70;93.00;;;;;;4996474;28;20073;-63
2022/08/19 02:36:47;;;;;;;6.78;5.40;;;21.70;92.90;;;;;;4993888;28;20041;-61
2022/08/19 02:39:13;;;;;;;5.97;5.47;;;21.70;92.90;;;;;;5011057;28;20095;-62
2022/08/19 02:41:38;;;;;;;7.10;5.75;;;21.70;92.90;;;;;;4991810;28;20077;-64
2022/08/19 02:44:04;;;;;;;6.20;5.60;;;21.70;92.90;;;;;;4993275;28;20744;-64
2022/08/19 02:46:31;;;;;;;6.88;5.90;;;21.70;92.90;;;;;;5009970;28;20038;-64
2022/08/19 02:48:58;;;;;;;9.40;5.72;;;21.70;92.90;;;;;;4990404;28;20571;-65
2022/08/19 02:51:32;;;;;;;6.45;5.70;;;21.70;92.80;;;;;;4980569;28;20577;-62
2022/08/19 02:53:59;;;;;;;9.45;5.30;;;21.70;92.80;;;;;;4993822;28;20486;-64
2022/08/19 02:56:27;;;;;;;7.00;5.85;;;21.70;92.80;;;;;;4994278;28;20072;-64
2022/08/19 02:58:53;;;;;;;9.65;5.47;;;21.60;92.70;;;;;;4993959;28;20113;-65
2022/08/19 03:01:26;;;;;;;8.82;5.88;;;21.70;92.80;;;;;;4995602;28;20029;-61
2022/08/19 03:03:52;;;;;;;6.05;5.45;;;21.70;92.80;;;;;;4976420;28;20076;-62
2022/08/19 03:06:18;;;;;;;8.80;5.93;;;21.60;92.70;;;;;;4997547;28;20029;-64
2022/08/19 03:08:45;;;;;;;6.30;5.55;;;21.70;92.70;;;;;;4981556;28;20026;-62
2022/08/19 03:11:20;;;;;;;7.15;5.53;;;21.70;92.80;;;;;;5001524;28;20393;-63
2022/08/19 03:13:45;;;;;;;7.50;6.78;;;21.70;92.80;;;;;;4999813;28;20036;-64
2022/08/19 03:16:11;;;;;;;10.43;7.47;;;21.70;92.80;;;;;;4970513;28;20580;-64
2022/08/19 03:18:37;;;;;;;6.93;6.32;;;21.60;92.80;;;;;;4997672;28;20092;-63
2022/08/19 03:21:03;;;;;;;6.70;5.57;;;21.70;92.80;;;;;;5014622;28;20400;-65
2022/08/19 03:23:28;;;;;;;7.03;6.13;;;21.60;92.80;;;;;;4996849;28;20050;-61
2022/08/19 03:25:54;;;;;;;8.32;6.07;;;21.60;92.70;;;;;;4965364;28;20032;-62
2022/08/19 03:28:19;;;;;;;8.85;6.32;;;21.70;92.80;;;;;;4996726;28;20022;-62
2022/08/19 03:31:04;;;;;;;7.15;5.55;;;21.60;92.70;;;;;;4998034;28;20034;-62
2022/08/19 03:33:30;;;;;;;11.73;6.10;;;21.60;92.70;;;;;;4996987;28;21454;-61
2022/08/19 03:36:03;;;;;;;8.10;5.60;;;21.60;92.60;;;;;;5011737;28;20040;-64
2022/08/19 03:38:29;;;;;;;8.15;6.05;;;21.70;92.70;;;;;;4997241;28;20026;-64
2022/08/19 03:40:54;;;;;;;7.10;5.93;;;21.60;92.60;;;;;;4994177;28;20296;-62
2022/08/19 03:43:20;;;;;;;7.22;5.93;;;21.60;92.70;;;;;;4994606;28;20183;-61
2022/08/19 03:45:47;;;;;;;13.55;6.15;;;21.60;92.70;;;;;;4996197;28;20054;-64
2022/08/19 03:48:12;;;;;;;9.15;5.60;;;21.60;92.70;;;;;;5009738;28;20808;-64
2022/08/19 03:50:41;;;;;;;10.63;6.13;;;21.60;92.70;;;;;;4996835;28;20080;-61
2022/08/19 03:53:08;;;;;;;9.88;5.07;;;21.60;92.70;;;;;;4983521;28;20540;-62
2022/08/19 03:55:39;;;;;;;11.90;6.07;;;21.60;92.70;;;;;;4993852;28;20048;-64
2022/08/19 03:58:04;;;;;;;8.95;5.38;;;21.60;92.70;;;;;;4995512;28;20663;-61
2022/08/19 04:00:30;;;;;;;11.00;5.57;;;21.60;92.70;;;;;;4997719;28;20104;-64
2022/08/19 04:02:55;;;;;;;10.98;6.00;;;21.60;92.70;;;;;;4996788;28;20071;-62
2022/08/19 04:05:21;;;;;;;13.40;6.53;;;21.60;92.70;;;;;;4997695;28;20105;-62
2022/08/19 04:07:46;;;;;;;9.40;6.15;;;21.60;92.70;;;;;;4999888;28;20058;-62
2022/08/19 04:10:12;;;;;;;8.43;5.53;;;21.60;92.70;;;;;;4982786;28;20113;-63
2022/08/19 04:12:39;;;;;;;9.25;5.28;;;21.60;92.70;;;;;;4998648;28;20029;-63
2022/08/19 04:15:05;;;;;;;10.00;5.85;;;21.60;92.60;;;;;;4998017;28;20116;-65
2022/08/19 04:17:31;;;;;;;55.22;9.60;;;21.60;92.60;;;;;;4981233;28;20179;-64
2022/08/19 04:19:57;;;;;;;40.60;9.00;;;21.60;92.60;;;;;;4998370;28;20398;-62
2022/08/19 04:22:22;;;;;;;43.33;9.77;;;21.60;92.50;;;;;;4995073;28;20092;-65
2022/08/19 04:24:48;;;;;;;40.90;8.88;;;21.60;92.50;;;;;;4996388;28;20030;-61
2022/08/19 04:27:13;;;;;;;22.67;8.00;;;21.60;92.50;;;;;;4997034;28;20034;-63
2022/08/19 04:29:40;;;;;;;43.50;8.95;;;21.60;92.60;;;;;;4995291;28;20382;-63
2022/08/19 04:32:05;;;;;;;32.83;8.32;;;21.60;92.60;;;;;;4982045;28;20045;-64
2022/08/19 04:34:31;;;;;;;33.72;8.40;;;21.60;92.70;;;;;;4994761;28;20766;-64
2022/08/19 04:36:57;;;;;;;33.85;8.55;;;21.60;92.80;;;;;;5010674;28;20025;-62
2022/08/19 04:44:59;;;;;;;27.80;8.30;;;21.60;92.90;;;;;;4995376;28;20176;-61
2022/08/19 04:47:24;;;;;;;18.70;9.07;;;21.60;92.80;;;;;;5013091;28;20037;-62
2022/08/19 04:49:50;;;;;;;24.30;8.65;;;21.60;92.90;;;;;;4982265;28;20049;-62
2022/08/19 04:52:16;;;;;;;23.30;8.23;;;21.60;92.90;;;;;;4980663;28;20030;-62
2022/08/19 04:54:41;;;;;;;20.00;7.82;;;21.60;92.90;;;;;;4999106;28;20056;-63
2022/08/19 04:57:08;;;;;;;20.77;8.18;;;21.60;92.90;;;;;;4998285;28;20469;-62
2022/08/19 04:59:33;;;;;;;19.40;8.75;;;21.50;92.80;;;;;;5012017;28;20119;-64
2022/08/19 05:01:59;;;;;;;20.30;8.80;;;21.50;93.00;;;;;;4994125;28;20038;-63
2022/08/19 05:04:24;;;;;;;22.33;7.90;;;21.50;93.20;;;;;;4994427;28;20068;-64
2022/08/19 05:06:51;;;;;;;13.55;8.35;;;21.50;93.30;;;;;;4995453;28;20148;-64
2022/08/19 05:09:16;;;;;;;18.88;8.90;;;21.50;93.30;;;;;;4980860;28;20062;-62
2022/08/19 05:11:42;;;;;;;18.58;8.80;;;21.50;93.40;;;;;;4998827;28;20030;-63
2022/08/19 05:14:08;;;;;;;24.23;8.75;;;21.50;93.40;;;;;;5000201;28;20253;-64
2022/08/19 05:16:34;;;;;;;17.80;9.23;;;21.50;93.60;;;;;;4981832;28;20505;-62
2022/08/19 05:24:29;;;;;;;13.40;8.95;;;21.40;93.70;;;;;;4981559;28;20045;-62
2022/08/19 05:26:56;;;;;;;16.73;9.40;;;21.50;93.70;;;;;;4994920;28;20037;-64
2022/08/19 05:29:22;;;;;;;16.88;9.48;;;21.50;93.80;;;;;;5001928;28;20034;-65
2022/08/19 05:31:51;;;;;;;11.80;8.65;;;21.30;93.70;;;;;;5013895;28;20033;-63
2022/08/19 05:34:17;;;;;;;16.40;8.80;;;21.40;93.70;;;;;;5000626;28;20415;-65
2022/08/19 05:36:44;;;;;;;14.70;9.15;;;21.40;93.80;;;;;;5000123;28;20022;-62
2022/08/19 05:39:12;;;;;;;11.27;8.43;;;21.40;93.80;;;;;;4996998;28;20032;-62
2022/08/19 05:41:52;;;;;;;9.35;8.35;;;21.40;93.80;;;;;;5000564;28;20045;-61
2022/08/19 05:44:18;;;;;;;18.33;8.07;;;21.40;93.70;;;;;;4999730;28;20029;-64
2022/08/19 05:46:46;;;;;;;11.98;8.10;;;21.50;93.60;;;;;;4998698;28;20056;-62
2022/08/19 05:49:12;;;;;;;9.75;7.88;;;21.50;93.40;;;;;;5001989;28;20036;-62
2022/08/19 05:51:37;;;;;;;16.35;7.90;;;21.50;93.40;;;;;;4999570;28;20026;-63
2022/08/19 05:54:04;;;;;;;13.00;8.15;;;21.50;93.50;;;;;;4996400;28;20128;-64
2022/08/19 05:56:30;;;;;;;9.38;7.43;;;21.50;93.60;;;;;;5001584;28;20405;-63
2022/08/19 05:58:56;;;;;;;12.32;7.18;;;21.40;93.60;;;;;;4999705;28;20113;-67
2022/08/19 06:01:21;;;;;;;12.45;8.13;;;21.40;93.60;;;;;;4999434;28;20033;-61
2022/08/19 06:03:49;;;;;;;12.13;7.88;;;21.50;93.60;;;;;;5001388;28;20144;-64
2022/08/19 06:06:17;;;;;;;10.15;7.70;;;21.40;93.60;;;;;;5000952;28;20500;-63
2022/08/19 06:08:44;;;;;;;8.18;7.30;;;21.40;93.80;;;;;;5016582;28;20945;-63
2022/08/19 06:11:19;;;;;;;9.52;7.47;;;21.40;93.80;;;;;;4984124;28;20049;-62
2022/08/19 06:13:47;;;;;;;10.00;7.30;;;21.40;94.20;;;;;;4984404;28;20052;-62
2022/08/19 06:16:19;;;;;;;10.25;7.25;;;21.40;93.90;;;;;;4995119;28;20280;-63
2022/08/19 06:18:44;;;;;;;10.20;7.15;;;21.40;94.00;;;;;;4997946;28;20041;-64
2022/08/19 06:21:10;;;;;;;9.80;6.57;;;21.30;94.10;;;;;;4980389;28;20049;-63
2022/08/19 06:23:36;;;;;;;8.57;7.75;;;21.30;94.10;;;;;;4994885;28;20117;-62
2022/08/19 06:26:01;;;;;;;11.80;7.35;;;21.40;94.20;;;;;;4994407;28;20116;-62
2022/08/19 06:28:27;;;;;;;11.85;7.40;;;21.30;94.30;;;;;;4996974;28;20061;-63
2022/08/19 06:30:52;;;;;;;10.15;7.00;;;21.30;94.40;;;;;;4996409;28;20037;-62
2022/08/19 06:33:18;;;;;;;8.80;6.80;;;21.30;94.50;;;;;;4999904;28;20033;-64
2022/08/19 06:35:43;;;;;;;9.45;7.97;;;21.30;94.50;;;;;;4995633;28;20068;-64
2022/08/19 06:38:09;;;;;;;8.20;7.35;;;21.30;94.50;;;;;;4996377;28;20636;-63
2022/08/19 06:40:36;;;;;;;8.23;7.43;;;21.30;94.70;;;;;;4996025;28;20630;-63
2022/08/19 06:43:02;;;;;;;8.52;7.72;;;21.20;94.80;;;;;;4998164;28;20104;-63
2022/08/19 06:45:27;;;;;;;8.50;7.18;;;21.30;94.90;;;;;;5005424;28;20053;-64
2022/08/19 06:47:56;;;;;;;8.82;7.30;;;21.20;94.90;;;;;;5001503;28;20112;-63
2022/08/19 06:50:24;;;;;;;8.13;7.38;;;21.20;95.00;;;;;;4998147;28;20109;-63
2022/08/19 06:52:50;;;;;;;10.85;7.80;;;21.20;95.20;;;;;;4996728;28;20046;-65
2022/08/19 06:55:16;;;;;;;9.32;7.53;;;21.20;95.20;;;;;;4998029;28;20536;-63
2022/08/19 06:57:42;;;;;;;8.65;7.38;;;21.20;95.30;;;;;;5004229;28;20448;-65
2022/08/19 07:00:12;;;;;;;18.30;7.45;;;21.20;95.30;;;;;;4997132;28;20018;-63
2022/08/19 07:02:38;;;;;;;14.00;6.93;;;21.20;95.40;;;;;;4982109;28;20060;-63
2022/08/19 07:05:05;;;;;;;11.45;8.15;;;21.20;95.50;;;;;;4995075;28;20525;-63
2022/08/19 07:07:31;;;;;;;20.30;8.25;;;21.20;95.50;;;;;;4983328;28;20096;-64
2022/08/19 07:09:56;;;;;;;31.50;8.52;;;21.20;95.60;;;;;;4995484;28;20252;-64
2022/08/19 07:12:22;;;;;;;34.42;9.05;;;21.20;95.70;;;;;;4998338;28;20033;-62
2022/08/19 07:14:49;;;;;;;29.48;9.25;;;21.10;95.70;;;;;;5001156;28;20025;-63
2022/08/19 07:17:14;;;;;;;24.88;8.55;;;21.20;95.90;;;;;;4997423;28;20030;-63
2022/08/19 07:19:40;;;;;;;31.30;9.35;;;21.20;95.80;;;;;;5009760;28;20523;-63
2022/08/19 07:22:06;;;;;;;16.10;8.48;;;21.10;95.80;;;;;;4988511;28;20100;-64
2022/08/19 07:24:32;;;;;;;21.27;8.95;;;21.10;95.80;;;;;;4990968;28;20766;-63
2022/08/19 07:27:00;;;;;;;27.35;9.43;;;21.20;95.80;;;;;;4997538;28;20092;-61
2022/08/19 07:29:26;;;;;;;63.92;12.32;;;21.20;95.90;;;;;;5002848;28;20069;-61
2022/08/19 07:31:52;;;;;;;31.98;9.30;;;21.20;95.90;;;;;;4993287;28;20072;-65
2022/08/19 07:34:18;;;;;;;25.92;8.75;;;21.30;96.00;;;;;;4993481;28;21453;-63
2022/08/19 07:36:43;;;;;;;74.82;13.18;;;21.20;95.90;;;;;;4992286;28;20033;-65
2022/08/19 07:39:12;;;;;;;49.55;10.80;;;21.20;95.90;;;;;;4991920;28;20030;-63
2022/08/19 07:41:39;;;;;;;29.00;8.60;;;21.20;95.90;;;;;;4991543;28;20050;-62
2022/08/19 07:44:05;;;;;;;167.23;23.10;;;21.20;96.00;;;;;;4989389;28;20110;-65
2022/08/19 07:46:31;;;;;;;45.97;10.13;;;21.20;96.10;;;;;;5008006;28;20516;-64
2022/08/19 07:48:57;;;;;;;41.20;9.77;;;21.20;96.00;;;;;;5005435;28;20054;-65
2022/08/19 07:51:23;;;;;;;28.27;8.48;;;21.20;96.00;;;;;;4988717;28;20034;-64
2022/08/19 07:53:49;;;;;;;50.58;11.60;;;21.20;96.00;;;;;;5006948;28;20106;-62
2022/08/19 07:56:15;;;;;;;49.47;11.27;;;21.20;96.00;;;;;;4984519;28;20026;-63
2022/08/19 07:58:44;;;;;;;45.53;10.23;;;21.20;96.00;;;;;;4989099;28;20076;-63
2022/08/19 08:01:15;;;;;;;38.15;9.18;;;21.30;96.00;;;;;;5006657;28;20045;-63
2022/08/19 08:09:11;;;;;;;47.90;10.07;;;21.30;96.10;;;;;;4987007;28;20111;-63
2022/08/19 08:12:05;;;;;;;41.60;9.98;;;21.30;96.20;;;;;;4986262;28;20131;-65
2022/08/19 08:14:34;;;;;;;73.22;12.25;;;21.30;95.90;;;;;;4987783;28;20037;-64
2022/08/19 08:17:01;;;;;;;38.25;10.45;;;21.30;96.00;;;;;;4987842;28;20034;-65
2022/08/19 08:19:27;;;;;;;49.88;12.27;;;21.30;96.00;;;;;;4991413;28;20061;-63
2022/08/19 08:21:57;;;;;;;63.55;11.80;;;21.30;96.00;;;;;;4990394;28;20179;-62
2022/08/19 08:24:23;;;;;;;50.78;12.25;;;21.30;96.00;;;;;;4991709;28;20029;-64
2022/08/19 08:26:49;;;;;;;60.85;10.85;;;21.30;96.00;;;;;;4973567;28;20088;-65
2022/08/19 08:29:15;;;;;;;57.17;12.15;;;21.30;96.10;;;;;;4991927;28;20033;-65
2022/08/19 08:31:41;;;;;;;61.75;12.65;;;21.40;96.10;;;;;;4971981;28;20034;-65
2022/08/19 08:34:07;;;;;;;68.28;13.18;;;21.30;96.10;;;;;;4984364;28;20155;-64
2022/08/19 08:36:35;;;;;;;57.67;12.25;;;21.30;96.20;;;;;;4988659;28;20065;-62
2022/08/19 08:39:01;;;;;;;70.47;12.95;;;21.40;96.10;;;;;;4973967;28;20040;-64
2022/08/19 08:41:56;;;;;;;85.13;13.48;;;21.40;96.20;;;;;;4973942;28;20046;-63
2022/08/19 08:44:35;;;;;;;92.07;14.35;;;21.40;96.20;;;;;;4988130;28;20048;-62
2022/08/19 08:47:03;;;;;;;87.90;15.10;;;21.50;96.30;;;;;;5007537;28;20084;-65
2022/08/19 08:49:45;;;;;;;93.18;14.90;;;21.50;96.20;;;;;;5004639;28;20060;-63
2022/08/19 08:52:24;;;;;;;149.27;21.75;;;21.50;96.20;;;;;;5006902;28;20057;-63
2022/08/19 08:54:53;;;;;;;91.88;17.63;;;21.50;96.00;;;;;;4974842;28;20129;-65
2022/08/19 08:57:51;;;;;;;96.68;17.42;;;21.50;96.10;;;;;;5001237;28;20032;-63
2022/08/19 09:00:24;;;;;;;119.32;17.80;;;21.50;96.50;;;;;;4982225;28;20046;-63
2022/08/19 09:02:50;;;;;;;136.80;20.48;;;21.50;96.60;;;;;;4987562;28;20096;-62
2022/08/19 09:05:15;;;;;;;125.85;19.35;;;21.50;96.90;;;;;;4986784;28;20033;-61
2022/08/19 09:07:58;;;;;;;160.38;22.40;;;21.50;97.70;;;;;;4987510;28;20552;-62
2022/08/19 09:10:33;;;;;;;133.27;22.05;;;21.50;98.10;;;;;;4994848;28;20592;-65
2022/08/19 09:13:33;;;;;;;130.05;20.35;;;21.50;97.60;;;;;;4988958;28;20025;-62
2022/08/19 09:16:03;;;;;;;159.07;21.88;;;21.40;97.70;;;;;;5015064;28;20140;-63
2022/08/19 09:18:48;;;;;;;120.60;21.40;;;21.50;98.10;;;;;;4986474;28;20572;-62
2022/08/19 09:21:15;;;;;;;114.03;20.42;;;21.50;97.90;;;;;;4985240;28;20041;-63
2022/08/19 09:23:40;;;;;;;120.45;20.08;;;21.40;98.20;;;;;;4983832;28;20096;-62
2022/08/19 09:26:25;;;;;;;119.20;21.52;;;21.40;98.00;;;;;;4982187;28;20188;-64
2022/08/19 09:28:52;;;;;;;138.00;20.25;;;21.50;98.40;;;;;;4985666;28;20048;-64
2022/08/19 09:31:19;;;;;;;135.57;21.75;;;21.50;98.70;;;;;;4967859;28;20030;-62
2022/08/19 09:33:45;;;;;;;131.80;21.50;;;21.40;98.80;;;;;;4987616;28;20524;-62
2022/08/19 09:36:12;;;;;;;104.90;19.27;;;21.40;98.50;;;;;;4990724;28;20025;-64
2022/08/19 09:38:41;;;;;;;116.18;19.83;;;21.40;98.10;;;;;;4987541;28;20053;-64
2022/08/19 09:41:08;;;;;;;112.95;20.73;;;21.50;98.10;;;;;;4990765;28;20114;-62
2022/08/19 09:43:36;;;;;;;135.95;22.67;;;21.50;97.90;;;;;;4979643;28;20042;-64
2022/08/19 09:46:06;;;;;;;162.07;23.23;;;21.50;97.90;;;;;;5004185;28;20025;-66
2022/08/19 09:48:32;;;;;;;217.25;28.85;;;21.50;97.80;;;;;;4995329;28;20053;-66
2022/08/19 09:51:05;;;;;;;183.55;26.52;;;21.50;97.80;;;;;;4989251;28;20125;-62
2022/08/19 09:53:30;;;;;;;195.77;27.55;;;21.50;97.60;;;;;;4983520;28;20037;-64
2022/08/19 09:55:56;;;;;;;149.18;24.38;;;21.60;97.70;;;;;;4988515;28;20037;-61
2022/08/19 09:58:26;;;;;;;186.05;26.23;;;21.60;97.60;;;;;;4989872;28;20038;-63
2022/08/19 10:00:53;;;;;;;158.65;24.33;;;21.60;97.50;;;;;;4988353;28;20040;-62
2022/08/19 10:03:18;;;;;;;120.15;22.55;;;21.60;97.60;;;;;;4988822;28;20034;-62
2022/08/19 10:05:50;;;;;;;137.40;22.67;;;21.60;97.40;;;;;;4991215;28;20038;-64
2022/08/19 10:08:21;;;;;;;138.43;23.65;;;21.60;97.60;;;;;;4985812;28;20030;-63
2022/08/19 10:10:47;;;;;;;119.80;22.27;;;21.60;97.60;;;;;;4982042;28;20158;-63
2022/08/19 10:13:23;;;;;;;155.88;26.13;;;21.60;97.60;;;;;;4966190;28;20045;-64
2022/08/19 10:15:50;;;;;;;114.88;23.95;;;21.60;98.10;;;;;;4993194;28;20044;-65
2022/08/19 10:18:17;;;;;;;115.18;22.33;;;21.60;98.00;;;;;;4982645;28;20619;-63
2022/08/19 10:20:44;;;;;;;111.82;21.33;;;21.60;98.00;;;;;;4973318;28;20458;-64
2022/08/19 10:23:10;;;;;;;122.93;21.70;;;21.60;97.80;;;;;;4987941;28;20442;-63
2022/08/19 10:25:35;;;;;;;136.77;21.92;;;21.60;97.70;;;;;;4988362;28;20026;-64
2022/08/19 10:28:01;;;;;;;122.18;22.42;;;21.60;97.60;;;;;;4993211;28;20029;-62
2022/08/19 10:30:27;;;;;;;87.82;21.23;;;21.60;97.50;;;;;;5007725;28;20021;-62
2022/08/19 10:32:53;;;;;;;138.50;20.75;;;21.60;97.50;;;;;;4992764;28;20030;-65
2022/08/19 10:35:18;;;;;;;120.13;23.17;;;21.60;97.40;;;;;;4992245;28;20446;-64
2022/08/19 10:37:44;;;;;;;103.30;21.10;;;21.60;97.60;;;;;;4992959;28;20122;-64
2022/08/19 10:40:11;;;;;;;117.40;20.50;;;21.60;97.50;;;;;;4991489;28;20034;-65
2022/08/19 10:42:36;;;;;;;122.55;23.58;;;21.60;97.40;;;;;;4994344;28;20540;-62
2022/08/19 10:45:03;;;;;;;122.80;20.63;;;21.60;97.50;;;;;;4993233;28;20042;-62
2022/08/19 10:47:28;;;;;;;86.15;20.25;;;21.60;97.50;;;;;;4991456;28;20076;-67
2022/08/19 10:52:40;;;;;;;112.40;20.75;;;21.60;97.30;;;;;;4976223;28;20510;-63
2022/08/19 10:57:52;;;;;;;84.10;20.80;;;21.60;97.40;;;;;;4986580;28;20065;-62
2022/08/19 11:00:18;;;;;;;96.15;20.48;;;21.60;97.30;;;;;;4987388;28;20077;-64
2022/08/19 11:02:44;;;;;;;91.45;20.30;;;21.60;97.30;;;;;;4966245;28;20041;-63
2022/08/19 11:05:10;;;;;;;95.32;20.15;;;21.60;97.30;;;;;;4984416;28;20026;-60
2022/08/19 11:07:38;;;;;;;75.03;19.50;;;21.60;97.50;;;;;;4975067;28;20088;-63
2022/08/19 11:10:04;;;;;;;76.30;20.00;;;21.60;97.30;;;;;;4990223;28;20425;-62
2022/08/19 11:12:29;;;;;;;95.78;22.02;;;21.60;97.30;;;;;;4991490;28;20730;-62
2022/08/19 11:14:55;;;;;;;91.00;22.13;;;21.40;97.30;;;;;;4994087;28;20439;-63
2022/08/19 11:17:23;;;;;;;95.25;21.65;;;21.60;97.40;;;;;;4989144;28;20030;-60
2022/08/19 11:19:49;;;;;;;78.75;19.60;;;21.60;97.50;;;;;;4991699;28;20038;-62
2022/08/19 11:22:14;;;;;;;71.10;20.27;;;21.60;97.40;;;;;;4983936;28;20121;-60
2022/08/19 11:24:40;;;;;;;84.38;19.60;;;21.60;97.40;;;;;;4987733;28;20506;-63
2022/08/19 11:27:07;;;;;;;78.50;19.67;;;21.60;97.40;;;;;;4987968;28;20516;-66
2022/08/19 11:29:34;;;;;;;62.42;19.95;;;21.60;97.40;;;;;;4989970;28;20044;-62
2022/08/19 11:32:01;;;;;;;46.33;17.77;;;21.60;97.50;;;;;;4994674;28;20052;-62
2022/08/19 11:34:28;;;;;;;71.72;19.05;;;21.60;97.40;;;;;;4979993;28;20036;-64
2022/08/19 11:36:56;;;;;;;57.72;17.73;;;21.60;97.40;;;;;;4993592;28;20045;-64
2022/08/19 11:39:22;;;;;;;58.10;19.70;;;21.60;97.40;;;;;;4992792;28;20041;-64
2022/08/19 11:41:47;;;;;;;73.13;20.48;;;21.60;97.60;;;;;;4997625;28;20414;-64
2022/08/19 11:44:14;;;;;;;70.38;19.10;;;21.60;98.00;;;;;;5006372;28;20057;-62
2022/08/19 11:46:39;;;;;;;51.90;17.67;;;21.60;98.20;;;;;;4991013;28;20038;-63
2022/08/19 11:49:09;;;;;;;59.92;18.75;;;21.50;98.10;;;;;;4964634;28;20167;-65
2022/08/19 11:51:34;;;;;;;62.22;18.55;;;21.50;98.00;;;;;;5001502;28;20026;-64
2022/08/19 11:54:00;;;;;;;42.55;16.85;;;21.50;98.40;;;;;;4998282;28;20036;-61
2022/08/19 11:56:26;;;;;;;61.15;20.42;;;21.50;98.20;;;;;;4984254;28;20038;-64
2022/08/19 11:58:52;;;;;;;55.97;17.65;;;21.50;98.40;;;;;;4982371;28;20493;-64
2022/08/19 12:01:19;;;;;;;52.38;17.63;;;21.50;98.40;;;;;;5001491;28;20032;-63
2022/08/19 12:03:45;;;;;;;59.70;18.17;;;21.50;98.30;;;;;;4982714;28;20133;-62
2022/08/19 12:06:13;;;;;;;42.65;17.42;;;21.50;98.80;;;;;;5001390;28;20041;-62
2022/08/19 12:08:39;;;;;;;54.70;17.27;;;21.50;99.00;;;;;;4997814;28;20014;-61
2022/08/19 12:11:07;;;;;;;79.25;18.83;;;21.50;99.00;;;;;;4998484;28;20041;-64
2022/08/19 12:13:33;;;;;;;51.25;18.40;;;21.50;99.00;;;;;;5004461;28;20037;-62
2022/08/19 12:15:59;;;;;;;52.90;17.27;;;21.50;99.30;;;;;;4998453;28;20034;-67
2022/08/19 12:18:24;;;;;;;50.40;16.80;;;21.60;99.30;;;;;;4984426;28;20030;-63
2022/08/19 12:20:50;;;;;;;54.53;17.02;;;21.50;98.90;;;;;;4996127;28;20112;-63
2022/08/19 12:23:16;;;;;;;46.80;16.50;;;21.60;98.60;;;;;;5000949;28;20045;-63
2022/08/19 12:25:49;;;;;;;41.50;15.63;;;21.60;98.50;;;;;;5000972;28;20781;-66
2022/08/19 12:28:16;;;;;;;53.63;15.95;;;21.60;98.20;;;;;;4998571;28;20067;-64
2022/08/19 12:30:41;;;;;;;48.88;16.10;;;21.60;98.00;;;;;;4996619;28;20029;-65
2022/08/19 12:33:07;;;;;;;41.58;15.07;;;21.60;98.30;;;;;;4981642;28;20049;-62
2022/08/19 12:35:33;;;;;;;53.85;15.68;;;21.60;98.00;;;;;;4998769;28;20030;-62
2022/08/19 12:37:59;;;;;;;57.72;14.45;;;21.60;97.90;;;;;;4998551;28;20030;-64
2022/08/19 12:40:25;;;;;;;42.70;14.75;;;21.70;97.90;;;;;;4998738;28;20383;-63
2022/08/19 12:42:50;;;;;;;51.55;18.10;;;21.70;97.50;;;;;;5001382;28;20048;-62
2022/08/19 12:45:16;;;;;;;51.67;16.90;;;21.70;97.50;;;;;;5002061;28;20425;-62
2022/08/19 12:47:41;;;;;;;62.70;17.42;;;21.80;98.00;;;;;;4985108;28;20040;-64
2022/08/19 12:50:08;;;;;;;45.97;16.42;;;21.70;98.20;;;;;;4996727;28;20030;-65
2022/08/19 12:52:36;;;;;;;51.05;18.30;;;21.80;98.10;;;;;;4997937;28;20568;-63
2022/08/19 12:55:02;;;;;;;84.53;19.60;;;21.70;98.60;;;;;;4991261;28;20132;-64